Time;durP1;ratioP1;P1;durP2;ratioP2;P2;SDS_P1;SDS_P2;PMS_P1;PMS_P2;Temp;Humidity;BMP_temperature;BMP_pressure;BME280_temperature;BME280_humidity;BME280_pressure;Samples;Min_cycle;Max_cycle;Signal;HPM_P1;HPM_P2
2022/01/04 00:00:37;;;;;;;39.70;5.53;;;8.00;99.90;;;;;;5032790;28;20103;-93
2022/01/04 00:03:03;;;;;;;29.20;5.70;;;7.70;99.90;;;;;;5032178;28;20041;-93
2022/01/04 00:05:29;;;;;;;33.08;5.50;;;8.20;99.90;;;;;;5032508;28;20459;-93
2022/01/04 00:07:55;;;;;;;37.53;6.43;;;8.10;99.90;;;;;;5032164;28;20067;-93
2022/01/04 00:10:23;;;;;;;30.08;6.45;;;7.80;99.90;;;;;;5031552;28;20061;-91
2022/01/04 00:15:35;;;;;;;39.13;6.57;;;7.80;99.90;;;;;;5048332;28;20048;-91
2022/01/04 00:18:00;;;;;;;43.95;7.70;;;6.70;99.90;;;;;;5031884;28;20043;-93
2022/01/04 00:20:28;;;;;;;39.60;6.90;;;7.30;99.90;;;;;;5031998;28;20074;-92
2022/01/04 00:22:54;;;;;;;45.67;7.75;;;8.00;99.90;;;;;;5032320;28;20326;-92
2022/01/04 00:25:20;;;;;;;41.72;6.57;;;6.60;99.90;;;;;;5032239;28;20041;-93
2022/01/04 00:27:48;;;;;;;35.13;6.20;;;8.10;99.90;;;;;;5032394;28;20041;-92
2022/01/04 00:30:14;;;;;;;30.40;6.53;;;7.80;99.90;;;;;;5032598;28;20076;-91
2022/01/04 00:32:39;;;;;;;30.90;5.88;;;7.00;99.90;;;;;;5031004;28;20488;-92
2022/01/04 00:35:06;;;;;;;36.58;5.85;;;7.70;99.90;;;;;;5033725;28;20049;-92
2022/01/04 00:37:31;;;;;;;37.95;6.30;;;7.10;99.90;;;;;;5052385;28;20075;-91
2022/01/04 00:39:58;;;;;;;31.98;6.57;;;7.10;99.90;;;;;;5051275;28;20047;-93
2022/01/04 00:42:23;;;;;;;39.28;6.30;;;8.00;99.90;;;;;;5051674;28;20090;-92
2022/01/04 00:44:49;;;;;;;41.15;6.90;;;7.10;99.90;;;;;;5051152;28;20147;-93
2022/01/04 00:47:15;;;;;;;35.80;7.55;;;7.80;99.90;;;;;;5051811;28;20040;-92
2022/01/04 00:49:41;;;;;;;33.45;6.45;;;6.50;99.90;;;;;;5051836;28;20060;-91
2022/01/04 00:52:12;;;;;;;35.45;7.38;;;7.30;99.90;;;;;;5051703;28;20053;-92
2022/01/04 00:54:38;;;;;;;40.40;7.80;;;7.20;99.90;;;;;;5052040;28;20145;-90
2022/01/04 00:57:04;;;;;;;40.45;8.07;;;7.80;99.90;;;;;;5051550;28;20044;-92
2022/01/04 00:59:30;;;;;;;35.55;7.95;;;7.20;99.90;;;;;;5051620;28;20041;-92
2022/01/04 01:01:55;;;;;;;43.22;8.23;;;7.10;99.90;;;;;;5051673;28;20399;-92
2022/01/04 01:04:22;;;;;;;38.90;7.93;;;7.10;99.90;;;;;;5051928;28;20460;-93
2022/01/04 01:06:48;;;;;;;39.05;8.43;;;7.50;99.90;;;;;;5051212;28;20084;-92
2022/01/04 01:09:13;;;;;;;33.67;7.85;;;7.30;99.90;;;;;;5051664;28;20088;-93
2022/01/04 01:11:39;;;;;;;35.25;8.00;;;7.40;99.90;;;;;;5052161;28;20067;-92
2022/01/04 01:14:05;;;;;;;34.92;8.07;;;7.70;99.90;;;;;;5047341;28;20029;-92
2022/01/04 01:16:32;;;;;;;34.20;7.97;;;7.10;99.90;;;;;;5033076;28;20357;-93
2022/01/04 01:18:58;;;;;;;44.22;7.82;;;8.10;99.90;;;;;;5031350;28;20037;-92
2022/01/04 01:21:24;;;;;;;37.08;7.85;;;7.80;99.90;;;;;;5030745;28;20507;-95
2022/01/04 01:23:50;;;;;;;40.05;7.97;;;7.80;99.90;;;;;;5031136;28;20094;-93
2022/01/04 01:26:15;;;;;;;46.83;8.45;;;7.70;99.90;;;;;;5031590;28;20053;-95
2022/01/04 01:28:41;;;;;;;38.60;7.75;;;8.00;99.90;;;;;;5031309;28;20044;-95
2022/01/04 01:31:08;;;;;;;35.85;7.53;;;7.30;99.90;;;;;;5032613;28;20052;-93
2022/01/04 01:33:34;;;;;;;38.58;8.15;;;7.30;99.90;;;;;;5031513;28;20084;-94
2022/01/04 01:36:00;;;;;;;45.10;9.00;;;8.00;99.90;;;;;;5030856;28;20080;-95
2022/01/04 01:38:26;;;;;;;42.95;8.45;;;7.90;99.90;;;;;;5031229;28;20049;-95
2022/01/04 01:40:52;;;;;;;52.38;8.90;;;7.10;99.90;;;;;;5031172;28;20048;-95
2022/01/04 01:43:19;;;;;;;33.40;7.97;;;8.00;99.90;;;;;;5030438;28;20049;-94
2022/01/04 01:45:46;;;;;;;35.67;8.60;;;8.20;99.90;;;;;;5030949;28;20048;-94
2022/01/04 01:48:12;;;;;;;42.83;8.75;;;7.10;99.90;;;;;;5031173;28;20045;-95
2022/01/04 01:50:38;;;;;;;43.00;9.40;;;7.50;99.90;;;;;;5030499;28;20056;-94
2022/01/04 01:53:05;;;;;;;40.70;8.75;;;7.50;99.90;;;;;;5031632;28;20059;-92
2022/01/04 01:55:31;;;;;;;43.03;9.30;;;7.80;99.90;;;;;;5030317;28;20507;-93
2022/01/04 01:57:57;;;;;;;40.25;7.97;;;8.20;99.90;;;;;;5031507;28;20484;-92
2022/01/04 02:00:25;;;;;;;35.05;7.72;;;7.40;99.90;;;;;;5030888;28;20048;-92
2022/01/04 02:02:51;;;;;;;38.25;8.73;;;8.10;99.90;;;;;;5030148;28;20102;-95
2022/01/04 02:05:17;;;;;;;39.45;8.02;;;8.40;99.90;;;;;;5050007;28;20048;-93
2022/01/04 02:07:44;;;;;;;48.60;8.95;;;7.80;99.90;;;;;;5050675;28;20506;-93
2022/01/04 02:10:11;;;;;;;39.22;8.13;;;8.20;99.90;;;;;;5052731;28;20083;-92
2022/01/04 02:12:47;;;;;;;33.42;8.07;;;7.90;99.90;;;;;;5054827;28;20482;-92
2022/01/04 02:15:15;;;;;;;36.22;7.38;;;7.60;99.90;;;;;;5055459;28;20036;-93
2022/01/04 02:17:41;;;;;;;37.67;8.07;;;7.20;99.90;;;;;;5055378;28;20135;-91
2022/01/04 02:20:08;;;;;;;43.10;8.40;;;7.50;99.90;;;;;;5054596;28;20041;-92
2022/01/04 02:22:35;;;;;;;44.10;7.65;;;8.20;99.90;;;;;;5053859;28;20051;-91
2022/01/04 02:25:01;;;;;;;32.03;7.93;;;8.00;99.90;;;;;;5054072;28;20087;-91
2022/01/04 02:27:27;;;;;;;43.13;8.00;;;8.00;99.90;;;;;;5053818;28;20080;-92
2022/01/04 02:29:52;;;;;;;49.53;7.65;;;7.80;99.90;;;;;;5054629;28;20087;-91
2022/01/04 02:32:19;;;;;;;46.22;8.30;;;8.00;99.90;;;;;;5053527;28;20039;-93
2022/01/04 02:34:49;;;;;;;39.45;7.35;;;8.20;99.90;;;;;;5053982;28;20080;-93
2022/01/04 02:37:21;;;;;;;38.33;7.80;;;8.40;99.90;;;;;;5053584;28;20055;-91
2022/01/04 02:39:47;;;;;;;47.75;8.45;;;8.20;99.90;;;;;;5054426;28;20492;-93
2022/01/04 02:42:13;;;;;;;40.70;7.65;;;8.30;99.90;;;;;;5054200;28;20403;-93
2022/01/04 02:44:39;;;;;;;36.15;7.68;;;7.80;99.90;;;;;;5053339;28;20045;-92
2022/01/04 02:47:05;;;;;;;48.65;7.35;;;8.00;99.90;;;;;;5053933;28;20368;-92
2022/01/04 02:49:30;;;;;;;48.67;7.93;;;7.50;99.90;;;;;;5052481;28;20094;-88
2022/01/04 02:51:56;;;;;;;38.55;6.95;;;7.40;99.90;;;;;;5053143;28;20209;-90
2022/01/04 02:54:22;;;;;;;35.53;6.57;;;7.40;99.90;;;;;;5053505;28;20476;-89
2022/01/04 02:56:48;;;;;;;45.53;8.15;;;7.00;99.90;;;;;;5053203;28;20052;-92
2022/01/04 02:59:14;;;;;;;49.35;7.30;;;8.00;99.90;;;;;;5053180;28;20324;-88
2022/01/04 03:01:40;;;;;;;35.72;7.00;;;7.50;99.90;;;;;;5052330;28;20041;-89
2022/01/04 03:04:07;;;;;;;42.53;7.93;;;7.50;99.90;;;;;;5053216;28;20054;-91
2022/01/04 03:06:34;;;;;;;40.58;6.95;;;7.50;99.90;;;;;;5052754;28;20040;-91
2022/01/04 03:09:01;;;;;;;43.58;6.70;;;7.50;99.90;;;;;;5053542;28;20048;-90
2022/01/04 03:11:27;;;;;;;44.45;7.47;;;8.10;99.90;;;;;;5053479;28;20044;-91
2022/01/04 03:13:53;;;;;;;36.17;6.85;;;7.50;99.90;;;;;;5050410;28;20041;-91
2022/01/04 03:16:18;;;;;;;38.17;6.50;;;7.70;99.90;;;;;;5033233;28;20045;-92
2022/01/04 03:19:03;;;;;;;47.65;7.38;;;7.60;99.90;;;;;;5033033;28;20051;-92
2022/01/04 03:21:30;;;;;;;39.67;7.57;;;7.60;99.90;;;;;;5032439;28;20037;-91
2022/01/04 03:23:56;;;;;;;37.17;6.80;;;7.60;99.90;;;;;;5033131;28;20053;-91
2022/01/04 03:26:22;;;;;;;32.45;6.45;;;7.60;99.90;;;;;;5032978;28;20132;-92
2022/01/04 03:28:48;;;;;;;34.90;7.43;;;7.60;99.90;;;;;;5033176;28;20140;-92
2022/01/04 03:31:14;;;;;;;41.95;8.27;;;7.80;99.90;;;;;;5033075;28;20107;-92
2022/01/04 03:33:40;;;;;;;32.70;6.80;;;7.60;99.90;;;;;;5032274;28;20067;-90
2022/01/04 03:36:06;;;;;;;38.50;7.53;;;8.00;99.90;;;;;;5033394;28;20464;-92
2022/01/04 03:38:32;;;;;;;35.83;7.40;;;7.60;99.90;;;;;;5032855;28;20048;-91
2022/01/04 03:40:57;;;;;;;37.08;7.07;;;7.60;99.90;;;;;;5033380;28;20080;-91
2022/01/04 03:43:24;;;;;;;44.08;7.95;;;7.80;99.90;;;;;;5033922;28;20052;-92
2022/01/04 03:45:51;;;;;;;33.15;8.13;;;7.60;99.90;;;;;;5031623;28;20033;-89
2022/01/04 03:48:17;;;;;;;36.78;8.07;;;7.80;99.90;;;;;;5031734;28;20045;-88
2022/01/04 03:50:43;;;;;;;40.33;8.20;;;7.60;99.90;;;;;;5031689;28;20041;-89
2022/01/04 03:53:09;;;;;;;40.90;8.07;;;7.80;99.90;;;;;;5032566;28;20047;-88
2022/01/04 03:55:35;;;;;;;44.60;7.68;;;7.70;99.90;;;;;;5031886;28;20048;-92
2022/01/04 03:58:01;;;;;;;38.20;7.40;;;7.70;99.90;;;;;;5032261;28;20048;-90
2022/01/04 04:00:27;;;;;;;45.08;9.00;;;7.60;99.90;;;;;;5032503;28;20056;-90
2022/01/04 04:02:52;;;;;;;40.30;8.57;;;7.60;99.90;;;;;;5031701;28;20484;-90
2022/01/04 04:05:18;;;;;;;43.00;8.50;;;8.00;99.90;;;;;;5032318;28;20045;-90
2022/01/04 04:07:44;;;;;;;34.53;8.07;;;7.60;99.90;;;;;;5032699;28;20037;-90
2022/01/04 04:10:10;;;;;;;47.10;8.32;;;7.60;99.90;;;;;;5031684;28;20206;-91
2022/01/04 04:12:36;;;;;;;31.33;7.47;;;7.80;99.90;;;;;;5032220;28;20550;-92
2022/01/04 04:15:05;;;;;;;38.83;8.32;;;7.70;99.90;;;;;;5031949;28;20131;-90
2022/01/04 04:17:31;;;;;;;33.83;8.63;;;7.60;99.90;;;;;;5031277;28;20057;-90
2022/01/04 04:19:57;;;;;;;36.25;7.72;;;7.80;99.90;;;;;;5031948;28;20049;-89
2022/01/04 04:22:22;;;;;;;40.78;8.23;;;7.60;99.90;;;;;;5035035;28;20059;-91
2022/01/04 04:24:48;;;;;;;39.47;8.90;;;7.70;99.90;;;;;;5035253;28;20491;-91
2022/01/04 04:27:14;;;;;;;36.17;7.95;;;8.10;99.90;;;;;;5035574;28;20468;-91
2022/01/04 04:29:41;;;;;;;43.60;8.85;;;7.60;99.90;;;;;;5035327;28;20136;-92
2022/01/04 04:32:08;;;;;;;36.10;8.50;;;7.60;99.90;;;;;;5034386;28;20143;-91
2022/01/04 04:34:33;;;;;;;40.05;9.45;;;7.60;99.90;;;;;;5035650;28;20048;-91
2022/01/04 04:36:59;;;;;;;37.88;7.70;;;8.20;99.90;;;;;;5051331;28;20319;-90
2022/01/04 04:39:25;;;;;;;37.55;7.75;;;7.60;99.90;;;;;;5054682;28;20063;-91
2022/01/04 04:41:52;;;;;;;39.97;9.00;;;8.50;99.90;;;;;;5055652;28;20063;-91
2022/01/04 04:44:18;;;;;;;36.20;8.05;;;8.40;99.90;;;;;;5070705;28;20121;-90
2022/01/04 04:46:44;;;;;;;43.13;9.23;;;7.90;99.90;;;;;;5055108;28;20550;-92
2022/01/04 04:49:10;;;;;;;40.25;8.95;;;7.90;99.90;;;;;;5054864;28;20487;-91
2022/01/04 04:51:36;;;;;;;33.35;8.65;;;8.20;99.90;;;;;;5053851;28;20040;-89
2022/01/04 04:54:03;;;;;;;45.95;10.10;;;8.00;99.90;;;;;;5054992;28;20199;-91
2022/01/04 04:56:28;;;;;;;31.98;8.57;;;7.60;99.90;;;;;;5054336;28;20044;-90
2022/01/04 04:58:54;;;;;;;43.42;10.30;;;8.30;99.90;;;;;;5054499;28;20040;-90
2022/01/04 05:01:20;;;;;;;40.85;9.43;;;7.60;99.90;;;;;;5071292;28;20471;-92
2022/01/04 05:03:45;;;;;;;39.03;9.45;;;7.60;99.90;;;;;;5054482;28;20063;-91
2022/01/04 05:06:11;;;;;;;40.67;10.88;;;7.90;99.90;;;;;;5055680;28;20193;-92
2022/01/04 05:08:37;;;;;;;32.90;10.43;;;7.50;99.90;;;;;;5071344;28;20101;-92
2022/01/04 05:11:03;;;;;;;52.60;12.15;;;7.50;99.90;;;;;;5071786;28;20040;-91
2022/01/04 05:13:29;;;;;;;40.60;11.40;;;7.50;99.90;;;;;;5071095;28;20048;-91
2022/01/04 05:15:55;;;;;;;48.67;11.15;;;7.50;99.90;;;;;;5051512;28;20041;-90
2022/01/04 05:18:21;;;;;;;37.08;11.20;;;8.00;99.90;;;;;;5034915;28;20079;-91
2022/01/04 05:20:46;;;;;;;42.15;13.05;;;7.60;99.90;;;;;;5033650;28;20123;-90
2022/01/04 05:23:12;;;;;;;47.85;12.48;;;7.60;99.90;;;;;;5045126;28;20052;-91
2022/01/04 05:25:38;;;;;;;39.47;12.48;;;8.20;99.90;;;;;;5055964;28;20049;-92
2022/01/04 05:28:04;;;;;;;43.60;11.27;;;7.80;99.90;;;;;;5030501;28;20460;-93
2022/01/04 05:30:29;;;;;;;42.88;12.00;;;7.60;99.90;;;;;;5030953;28;20073;-92
2022/01/04 05:32:55;;;;;;;40.50;10.45;;;7.60;99.90;;;;;;5037573;28;20149;-90
2022/01/04 05:35:21;;;;;;;48.05;11.80;;;7.60;99.90;;;;;;5048723;28;20079;-91
2022/01/04 05:37:47;;;;;;;42.92;12.38;;;7.50;99.90;;;;;;5050751;28;20535;-91
2022/01/04 05:40:12;;;;;;;35.22;12.05;;;7.80;99.90;;;;;;5050054;28;20392;-91
2022/01/04 05:42:38;;;;;;;42.15;10.73;;;8.30;99.90;;;;;;5050127;28;20597;-91
2022/01/04 05:45:05;;;;;;;38.72;11.32;;;7.80;99.90;;;;;;5052134;28;20055;-92
2022/01/04 05:47:30;;;;;;;52.33;11.10;;;7.40;99.90;;;;;;5053939;28;20048;-91
2022/01/04 05:49:56;;;;;;;38.47;11.57;;;8.30;99.90;;;;;;5053865;28;20041;-90
2022/01/04 05:52:22;;;;;;;36.50;10.65;;;7.40;99.90;;;;;;5054308;28;20131;-90
2022/01/04 05:54:49;;;;;;;49.97;12.02;;;7.30;99.90;;;;;;5054616;28;20045;-92
2022/01/04 05:57:16;;;;;;;45.63;12.18;;;8.00;99.90;;;;;;5054534;28;20052;-92
2022/01/04 05:59:41;;;;;;;42.65;11.43;;;7.80;99.90;;;;;;5054526;28;20389;-91
2022/01/04 06:02:07;;;;;;;45.67;12.98;;;7.80;99.90;;;;;;5053695;28;20047;-91
2022/01/04 06:04:33;;;;;;;47.35;12.77;;;7.70;99.90;;;;;;5050597;28;20136;-91
2022/01/04 06:06:59;;;;;;;39.67;12.70;;;7.70;99.90;;;;;;5034724;28;20571;-92
2022/01/04 06:09:29;;;;;;;49.53;12.85;;;7.70;99.90;;;;;;5033950;28;20041;-92
2022/01/04 06:11:59;;;;;;;42.72;12.43;;;7.90;99.90;;;;;;5034965;28;20090;-91
2022/01/04 06:17:10;;;;;;;40.25;12.35;;;7.80;99.90;;;;;;5050318;28;20511;-91
2022/01/04 06:19:38;;;;;;;40.47;13.48;;;7.60;99.90;;;;;;5034067;28;20055;-91
2022/01/04 06:22:04;;;;;;;51.00;13.38;;;7.70;99.90;;;;;;5050755;28;20142;-91
2022/01/04 06:24:30;;;;;;;55.15;13.73;;;7.20;99.90;;;;;;5053832;28;20059;-89
2022/01/04 06:26:56;;;;;;;49.28;12.65;;;7.60;99.90;;;;;;5053908;28;20041;-90
2022/01/04 06:29:22;;;;;;;49.13;12.40;;;7.50;99.90;;;;;;5053498;28;20494;-90
2022/01/04 06:31:48;;;;;;;45.13;11.88;;;7.40;99.90;;;;;;5054375;28;20044;-91
2022/01/04 06:34:14;;;;;;;44.35;12.27;;;7.30;99.90;;;;;;5053691;28;20101;-91
2022/01/04 06:36:40;;;;;;;38.55;12.20;;;7.40;99.90;;;;;;5057105;28;20050;-92
2022/01/04 06:39:06;;;;;;;40.63;10.80;;;8.00;99.90;;;;;;5074188;28;20044;-92
2022/01/04 06:41:32;;;;;;;51.92;11.35;;;7.50;99.90;;;;;;5074671;28;20055;-91
2022/01/04 06:43:58;;;;;;;44.40;11.63;;;7.40;99.90;;;;;;5056854;28;20047;-90
2022/01/04 06:46:25;;;;;;;33.78;10.98;;;7.40;99.90;;;;;;5073391;28;20040;-91
2022/01/04 06:48:51;;;;;;;44.50;11.35;;;7.50;99.90;;;;;;5073776;28;20048;-91
2022/01/04 06:51:17;;;;;;;48.10;11.20;;;8.00;99.90;;;;;;5056790;28;20040;-91
2022/01/04 06:53:44;;;;;;;45.67;12.18;;;7.50;99.90;;;;;;5073964;28;20051;-91
2022/01/04 06:56:10;;;;;;;45.25;11.13;;;8.00;99.90;;;;;;5073988;28;20070;-94
2022/01/04 06:58:35;;;;;;;37.05;10.93;;;7.70;99.90;;;;;;5073533;28;20051;-91
2022/01/04 07:01:01;;;;;;;38.63;10.80;;;7.70;99.90;;;;;;5073523;28;20050;-91
2022/01/04 07:03:27;;;;;;;37.00;10.45;;;8.00;99.90;;;;;;5073628;28;20043;-90
2022/01/04 07:05:52;;;;;;;33.78;9.25;;;7.40;99.90;;;;;;5072857;28;20043;-91
2022/01/04 07:08:18;;;;;;;31.45;8.43;;;8.00;99.90;;;;;;5057132;28;20055;-91
2022/01/04 07:10:44;;;;;;;43.80;9.63;;;7.90;99.90;;;;;;5056895;28;20040;-92
2022/01/04 07:13:09;;;;;;;36.42;7.97;;;7.30;99.90;;;;;;5056574;28;20209;-91
2022/01/04 07:15:36;;;;;;;32.75;8.77;;;7.40;99.90;;;;;;5056740;28;20126;-90
2022/01/04 07:18:02;;;;;;;36.95;10.07;;;7.30;99.90;;;;;;5056731;28;20544;-91
2022/01/04 07:20:27;;;;;;;29.52;9.05;;;7.40;99.90;;;;;;5055843;28;20103;-90
2022/01/04 07:22:53;;;;;;;36.80;9.57;;;7.30;99.90;;;;;;5053979;28;20113;-93
2022/01/04 07:25:19;;;;;;;36.83;9.90;;;7.40;99.90;;;;;;5045713;28;20057;-94
2022/01/04 07:27:44;;;;;;;40.05;10.10;;;8.10;99.90;;;;;;5033998;28;20048;-92
2022/01/04 07:30:11;;;;;;;35.95;9.85;;;7.30;99.90;;;;;;5033987;28;20136;-93
2022/01/04 07:32:37;;;;;;;33.95;9.95;;;7.30;99.90;;;;;;5032778;28;20051;-92
2022/01/04 07:35:03;;;;;;;42.47;11.73;;;7.80;99.90;;;;;;5032933;28;20040;-93
2022/01/04 07:37:29;;;;;;;38.33;9.60;;;7.30;99.90;;;;;;5033213;28;20048;-93
2022/01/04 07:39:55;;;;;;;39.20;10.00;;;7.60;99.90;;;;;;5032698;28;20045;-94
2022/01/04 07:42:21;;;;;;;40.05;8.48;;;7.90;99.90;;;;;;5032986;28;20593;-93
2022/01/04 07:44:46;;;;;;;34.15;8.38;;;7.40;99.90;;;;;;5032935;28;20088;-93
2022/01/04 07:47:12;;;;;;;29.13;7.28;;;8.40;99.90;;;;;;5032309;28;20139;-85
2022/01/04 07:49:38;;;;;;;32.58;7.13;;;8.20;99.90;;;;;;5032697;28;20044;-94
2022/01/04 07:52:04;;;;;;;28.98;6.07;;;7.40;99.90;;;;;;5039819;28;20029;-94
2022/01/04 07:54:29;;;;;;;25.45;5.80;;;7.40;99.90;;;;;;5052399;28;20078;-93
2022/01/04 07:56:55;;;;;;;25.17;6.53;;;7.80;99.90;;;;;;5052757;28;20458;-93
2022/01/04 07:59:21;;;;;;;26.00;6.38;;;7.70;99.90;;;;;;5052335;28;20044;-92
2022/01/04 08:01:47;;;;;;;28.42;6.78;;;7.60;99.90;;;;;;5052040;28;20045;-94
2022/01/04 08:04:13;;;;;;;22.38;5.30;;;7.30;99.90;;;;;;5052149;28;20733;-93
2022/01/04 08:06:39;;;;;;;21.80;5.82;;;6.90;99.90;;;;;;5052070;28;20045;-93
2022/01/04 08:09:05;;;;;;;19.65;4.38;;;8.10;99.90;;;;;;5051934;28;20109;-95
2022/01/04 08:11:31;;;;;;;18.30;4.97;;;8.20;99.90;;;;;;5052228;28;20131;-94
2022/01/04 08:13:56;;;;;;;23.83;4.60;;;7.20;99.90;;;;;;5052643;28;20052;-94
2022/01/04 08:16:22;;;;;;;20.77;4.65;;;7.20;99.90;;;;;;5051894;28;20210;-95
2022/01/04 08:18:48;;;;;;;22.85;4.90;;;7.90;99.90;;;;;;5052059;28;20048;-94
2022/01/04 08:21:14;;;;;;;25.20;4.97;;;7.20;99.90;;;;;;5063566;28;20044;-92
2022/01/04 08:23:39;;;;;;;25.23;4.43;;;7.80;99.90;;;;;;5051185;28;20056;-93
2022/01/04 08:26:05;;;;;;;30.80;5.38;;;7.20;99.90;;;;;;5052671;28;20044;-92
2022/01/04 08:28:31;;;;;;;23.25;4.53;;;7.20;99.90;;;;;;5051328;28;20048;-91
2022/01/04 08:30:57;;;;;;;25.63;4.60;;;7.90;99.90;;;;;;5050696;28;20044;-89
2022/01/04 08:33:23;;;;;;;26.40;5.03;;;6.50;99.90;;;;;;5051139;28;20098;-90
2022/01/04 08:35:48;;;;;;;32.95;5.00;;;7.90;99.90;;;;;;5044112;28;20102;-92
2022/01/04 08:38:15;;;;;;;21.08;5.28;;;7.30;99.90;;;;;;5049735;28;20057;-90
2022/01/04 08:40:40;;;;;;;20.42;4.63;;;7.80;99.90;;;;;;5048304;28;20040;-92
2022/01/04 08:43:06;;;;;;;26.58;4.88;;;7.90;99.90;;;;;;5050297;28;20114;-91
2022/01/04 08:45:34;;;;;;;31.95;5.35;;;7.30;99.90;;;;;;5048244;28;20078;-93
2022/01/04 08:48:00;;;;;;;23.38;5.38;;;8.30;99.90;;;;;;5048416;28;20148;-93
2022/01/04 08:50:27;;;;;;;28.65;5.00;;;7.30;99.90;;;;;;5054038;28;20048;-91
2022/01/04 08:52:55;;;;;;;25.38;5.57;;;7.80;99.90;;;;;;5050773;28;20066;-92
2022/01/04 08:55:23;;;;;;;21.73;5.43;;;8.00;99.90;;;;;;5053347;28;20449;-92
2022/01/04 08:57:49;;;;;;;27.98;5.43;;;7.20;99.90;;;;;;5061360;28;20051;-91
2022/01/04 09:00:16;;;;;;;33.95;6.00;;;7.20;99.90;;;;;;5051600;28;20507;-93
2022/01/04 09:02:43;;;;;;;20.50;4.47;;;7.20;99.90;;;;;;5051265;28;20048;-94
2022/01/04 09:05:10;;;;;;;12.27;2.88;;;7.40;99.90;;;;;;5050845;28;20044;-94
2022/01/04 09:07:36;;;;;;;14.20;2.17;;;7.40;99.90;;;;;;5051401;28;20522;-96
2022/01/04 09:10:04;;;;;;;11.57;1.30;;;7.10;99.90;;;;;;5050881;28;20043;-92
2022/01/04 09:12:41;;;;;;;10.13;1.25;;;7.00;99.90;;;;;;5047849;28;20701;-93
2022/01/04 09:20:39;;;;;;;7.65;0.93;;;6.80;99.90;;;;;;5066305;28;20063;-90
2022/01/04 09:23:04;;;;;;;13.77;1.10;;;7.30;99.90;;;;;;5052746;28;20520;-90
2022/01/04 09:25:30;;;;;;;8.57;1.80;;;7.10;99.90;;;;;;5046987;28;20056;-90
2022/01/04 09:27:56;;;;;;;14.40;1.30;;;6.60;99.90;;;;;;5030740;28;20040;-91
2022/01/04 09:30:23;;;;;;;7.47;1.23;;;6.60;99.90;;;;;;5031086;28;20037;-91
2022/01/04 09:32:50;;;;;;;11.88;1.33;;;6.60;99.90;;;;;;5030522;28;20492;-90
2022/01/04 09:35:16;;;;;;;12.30;1.20;;;6.60;99.90;;;;;;5029897;28;20106;-88
2022/01/04 09:37:41;;;;;;;8.32;0.95;;;6.70;99.90;;;;;;5029676;28;20064;-88
2022/01/04 09:40:09;;;;;;;9.98;1.20;;;6.60;99.90;;;;;;5029184;28;20472;-88
2022/01/04 09:42:37;;;;;;;13.13;1.00;;;6.50;99.90;;;;;;5045974;28;20045;-87
2022/01/04 09:45:04;;;;;;;8.32;0.88;;;6.50;99.90;;;;;;5028954;28;20136;-87
2022/01/04 09:47:30;;;;;;;8.10;0.98;;;6.40;99.90;;;;;;5028265;28;20489;-88
2022/01/04 09:49:58;;;;;;;13.52;1.17;;;6.60;99.90;;;;;;5032801;28;20072;-87
2022/01/04 09:52:24;;;;;;;8.82;1.55;;;6.40;99.90;;;;;;5047426;28;20055;-89
2022/01/04 09:54:52;;;;;;;15.50;1.75;;;6.30;99.90;;;;;;5030224;28;20045;-89
2022/01/04 09:57:18;;;;;;;15.80;1.75;;;7.20;99.90;;;;;;5029965;28;20045;-89
2022/01/04 09:59:44;;;;;;;8.60;1.10;;;7.80;99.90;;;;;;5031987;28;20385;-90
2022/01/04 10:02:12;;;;;;;9.85;2.10;;;6.60;99.90;;;;;;5029833;28;20123;-90
2022/01/04 10:04:39;;;;;;;5.88;0.60;;;6.10;99.90;;;;;;5045902;28;20059;-88
2022/01/04 10:07:07;;;;;;;7.68;0.70;;;6.90;99.90;;;;;;5046496;28;20084;-90
2022/01/04 10:09:39;;;;;;;7.28;0.82;;;6.40;99.90;;;;;;5030569;28;20037;-90
2022/01/04 10:12:06;;;;;;;6.10;0.70;;;6.90;99.90;;;;;;5031071;28;20132;-90
2022/01/04 10:14:38;;;;;;;6.63;0.50;;;6.00;99.90;;;;;;5030299;28;20037;-91
2022/01/04 10:17:08;;;;;;;4.78;0.80;;;6.00;99.90;;;;;;5030361;28;20045;-90
2022/01/04 10:19:36;;;;;;;4.55;0.70;;;6.10;99.90;;;;;;5030763;28;20140;-90
2022/01/04 10:22:20;;;;;;;3.75;0.68;;;5.70;99.90;;;;;;5029645;28;20095;-89
2022/01/04 10:25:00;;;;;;;5.35;0.80;;;6.30;99.90;;;;;;5050176;28;20059;-91
2022/01/04 10:27:31;;;;;;;4.70;0.73;;;5.60;99.90;;;;;;5033522;28;20045;-89
2022/01/04 10:30:20;;;;;;;4.50;0.68;;;5.50;99.90;;;;;;5033239;28;20558;-89
2022/01/04 10:32:56;;;;;;;4.45;0.63;;;5.50;99.90;;;;;;5037001;28;20040;-88
2022/01/04 10:35:25;;;;;;;8.18;1.15;;;5.60;99.90;;;;;;5036387;28;20036;-87
2022/01/04 10:37:52;;;;;;;4.43;0.68;;;5.50;99.90;;;;;;5038564;28;20133;-91
2022/01/04 10:40:18;;;;;;;5.43;0.40;;;6.50;99.90;;;;;;5037864;28;20044;-92
2022/01/04 10:42:44;;;;;;;4.60;0.52;;;5.60;99.90;;;;;;5036628;28;20040;-91
2022/01/04 10:45:24;;;;;;;3.80;0.30;;;5.70;99.90;;;;;;5037909;28;20113;-90
2022/01/04 10:47:49;;;;;;;7.60;0.50;;;5.70;99.90;;;;;;5037424;28;20133;-88
2022/01/04 10:50:36;;;;;;;4.90;0.50;;;5.90;99.90;;;;;;5035301;28;20484;-88
2022/01/04 10:53:03;;;;;;;6.88;0.68;;;5.60;99.90;;;;;;5035742;28;20072;-88
2022/01/04 10:55:35;;;;;;;3.97;0.50;;;6.30;99.90;;;;;;5036267;28;20044;-90
2022/01/04 10:58:02;;;;;;;6.18;0.50;;;6.40;99.90;;;;;;5036487;28;20080;-89
2022/01/04 11:00:29;;;;;;;2.97;0.50;;;5.70;99.90;;;;;;5036202;28;20051;-88
2022/01/04 11:02:57;;;;;;;8.82;0.50;;;6.60;99.90;;;;;;5036080;28;20033;-88
2022/01/04 11:05:24;;;;;;;4.78;0.68;;;5.70;99.90;;;;;;5035860;28;20131;-89
2022/01/04 11:08:01;;;;;;;4.05;0.43;;;6.30;99.90;;;;;;5037213;28;20044;-89
2022/01/04 11:10:29;;;;;;;1.60;0.25;;;5.70;99.90;;;;;;5038105;28;20056;-89
2022/01/04 11:12:57;;;;;;;0.60;0.15;;;5.90;99.90;;;;;;5036111;28;20051;-90
2022/01/04 11:15:26;;;;;;;2.25;0.35;;;5.50;99.90;;;;;;5038120;28;20052;-90
2022/01/04 11:17:51;;;;;;;1.42;0.20;;;5.50;99.90;;;;;;5037488;28;20131;-90
2022/01/04 11:20:17;;;;;;;5.60;0.35;;;5.70;99.90;;;;;;5038292;28;20151;-91
2022/01/04 11:22:49;;;;;;;6.70;0.47;;;5.40;99.90;;;;;;5036734;28;20053;-92
2022/01/04 11:25:17;;;;;;;10.40;1.15;;;6.20;99.90;;;;;;5045501;28;20084;-92
2022/01/04 11:27:43;;;;;;;7.28;0.90;;;5.30;99.90;;;;;;5058584;28;20044;-92
2022/01/04 11:30:15;;;;;;;9.73;1.30;;;5.50;99.90;;;;;;5057267;28;20147;-90
2022/01/04 11:32:43;;;;;;;7.68;1.02;;;5.30;99.90;;;;;;5055729;28;20083;-93
2022/01/04 11:35:12;;;;;;;6.57;1.35;;;5.20;99.90;;;;;;5074693;28;20044;-92
2022/01/04 11:37:41;;;;;;;7.20;1.20;;;5.20;99.90;;;;;;5056835;28;20044;-91
2022/01/04 11:40:23;;;;;;;8.02;0.80;;;5.30;99.90;;;;;;5056613;28;20044;-94
2022/01/04 11:42:49;;;;;;;6.20;0.88;;;6.20;99.90;;;;;;5057031;28;20044;-94
2022/01/04 11:45:16;;;;;;;8.05;0.77;;;6.00;99.90;;;;;;5058106;28;20532;-90
2022/01/04 11:47:47;;;;;;;11.70;1.15;;;5.40;99.90;;;;;;5055824;28;20471;-91
2022/01/04 11:50:21;;;;;;;6.22;1.15;;;5.50;99.90;;;;;;5057480;28;20047;-96
2022/01/04 11:52:48;;;;;;;;;;;5.50;99.90;;;;;;5056862;28;20182;-91
2022/01/04 11:55:18;;;;;;;7.18;0.75;;;5.50;99.90;;;;;;5073809;28;19934;-91
2022/01/04 11:57:44;;;;;;;7.85;1.00;;;6.40;99.90;;;;;;5056504;28;20039;-90
2022/01/04 12:00:12;;;;;;;8.00;0.75;;;6.20;99.90;;;;;;5055722;28;20051;-92
2022/01/04 12:02:40;;;;;;;5.93;1.15;;;5.60;99.90;;;;;;5055927;28;20052;-90
2022/01/04 12:05:21;;;;;;;8.65;0.60;;;6.50;99.90;;;;;;5039307;28;20121;-94
2022/01/04 12:07:49;;;;;;;8.60;2.10;;;6.10;99.90;;;;;;5035311;28;20123;-91
2022/01/04 12:10:18;;;;;;;9.68;0.93;;;6.40;99.90;;;;;;5036368;28;20093;-89
2022/01/04 12:13:06;;;;;;;7.30;0.98;;;6.60;99.90;;;;;;5036051;28;20566;-91
2022/01/04 12:15:33;;;;;;;7.55;0.90;;;5.70;99.90;;;;;;5034663;28;20044;-92
2022/01/04 12:18:03;;;;;;;9.35;1.00;;;6.60;99.90;;;;;;5036539;28;20054;-91
2022/01/04 12:20:41;;;;;;;4.05;0.65;;;6.20;99.90;;;;;;5035890;28;20479;-91
2022/01/04 12:23:25;;;;;;;8.18;0.80;;;6.60;99.90;;;;;;5031647;28;20084;-91
2022/01/04 12:26:03;;;;;;;8.02;0.80;;;6.50;99.90;;;;;;5032107;28;20068;-92
2022/01/04 12:28:31;;;;;;;7.93;1.10;;;6.50;99.90;;;;;;5031524;28;20045;-91
2022/01/04 12:31:15;;;;;;;9.80;1.25;;;5.80;99.90;;;;;;5048987;28;20135;-91
2022/01/04 12:33:43;;;;;;;10.00;1.48;;;5.90;99.90;;;;;;5048282;28;20056;-91
2022/01/04 12:36:11;;;;;;;9.32;1.27;;;5.90;99.90;;;;;;5031652;28;20044;-91
2022/01/04 12:38:37;;;;;;;8.07;1.23;;;6.60;99.90;;;;;;5031877;28;20041;-90
2022/01/04 12:41:04;;;;;;;7.93;1.35;;;5.80;99.90;;;;;;5046644;28;20048;-89
2022/01/04 12:43:31;;;;;;;10.43;1.30;;;5.60;99.90;;;;;;5051354;28;20464;-90
2022/01/04 12:45:58;;;;;;;18.02;1.10;;;6.80;99.90;;;;;;5053273;28;20051;-92
2022/01/04 12:48:49;;;;;;;9.23;1.13;;;5.50;99.90;;;;;;5051916;28;20048;-92
2022/01/04 12:51:31;;;;;;;11.82;1.25;;;5.70;99.90;;;;;;5051456;28;20040;-91
2022/01/04 12:53:59;;;;;;;8.02;0.98;;;5.80;99.90;;;;;;5051110;28;20464;-90
2022/01/04 12:56:27;;;;;;;8.25;1.13;;;5.70;99.90;;;;;;5050485;28;20128;-89
2022/01/04 12:58:54;;;;;;;5.40;1.00;;;5.70;99.90;;;;;;5051144;28;20084;-89